sensor_id;sensor_type;location;lat;lon;timestamp;temperature;humidity
34766;DHT22;20984;43.508;1.504;2022-12-18T00:01:24;5.50;99.90
34766;DHT22;20984;43.508;1.504;2022-12-18T00:03:52;5.50;99.90
34766;DHT22;20984;43.508;1.504;2022-12-18T00:06:19;5.40;99.90
34766;DHT22;20984;43.508;1.504;2022-12-18T00:08:45;5.40;99.90
34766;DHT22;20984;43.508;1.504;2022-12-18T00:11:14;5.30;99.90
34766;DHT22;20984;43.508;1.504;2022-12-18T00:13:40;5.30;99.90
34766;DHT22;20984;43.508;1.504;2022-12-18T00:16:09;5.20;99.90
34766;DHT22;20984;43.508;1.504;2022-12-18T00:18:35;5.20;99.90
34766;DHT22;20984;43.508;1.504;2022-12-18T00:21:02;5.20;99.90
34766;DHT22;20984;43.508;1.504;2022-12-18T00:23:29;5.20;99.90
34766;DHT22;20984;43.508;1.504;2022-12-18T00:25:59;5.20;99.90
34766;DHT22;20984;43.508;1.504;2022-12-18T00:28:25;5.20;99.90
34766;DHT22;20984;43.508;1.504;2022-12-18T00:30:51;5.20;99.90
34766;DHT22;20984;43.508;1.504;2022-12-18T00:33:17;5.10;99.90
34766;DHT22;20984;43.508;1.504;2022-12-18T00:35:43;5.10;99.90
34766;DHT22;20984;43.508;1.504;2022-12-18T00:38:09;5.00;99.90
34766;DHT22;20984;43.508;1.504;2022-12-18T00:40:35;4.90;99.90
34766;DHT22;20984;43.508;1.504;2022-12-18T00:43:01;4.80;99.90
34766;DHT22;20984;43.508;1.504;2022-12-18T00:45:29;4.70;99.90
34766;DHT22;20984;43.508;1.504;2022-12-18T00:47:56;4.70;99.90
34766;DHT22;20984;43.508;1.504;2022-12-18T00:50:23;4.70;99.90
34766;DHT22;20984;43.508;1.504;2022-12-18T00:52:49;4.60;99.90
34766;DHT22;20984;43.508;1.504;2022-12-18T00:55:15;4.60;99.90
34766;DHT22;20984;43.508;1.504;2022-12-18T00:57:42;4.50;99.90
34766;DHT22;20984;43.508;1.504;2022-12-18T01:00:12;4.50;99.90
34766;DHT22;20984;43.508;1.504;2022-12-18T01:02:38;4.50;99.90
34766;DHT22;20984;43.508;1.504;2022-12-18T01:05:05;4.50;99.90
34766;DHT22;20984;43.508;1.504;2022-12-18T01:07:30;4.50;99.90
34766;DHT22;20984;43.508;1.504;2022-12-18T01:09:56;4.40;99.90
34766;DHT22;20984;43.508;1.504;2022-12-18T01:12:22;4.40;99.90
34766;DHT22;20984;43.508;1.504;2022-12-18T01:14:48;4.40;99.90
34766;DHT22;20984;43.508;1.504;2022-12-18T01:17:14;4.40;99.90
34766;DHT22;20984;43.508;1.504;2022-12-18T01:19:40;4.40;99.90
34766;DHT22;20984;43.508;1.504;2022-12-18T01:22:05;4.30;99.90
34766;DHT22;20984;43.508;1.504;2022-12-18T01:24:31;4.20;99.90
34766;DHT22;20984;43.508;1.504;2022-12-18T01:26:57;4.10;99.90
34766;DHT22;20984;43.508;1.504;2022-12-18T01:29:23;4.10;99.90
34766;DHT22;20984;43.508;1.504;2022-12-18T01:31:49;4.00;99.90
34766;DHT22;20984;43.508;1.504;2022-12-18T01:34:15;3.90;99.90
34766;DHT22;20984;43.508;1.504;2022-12-18T01:36:41;3.80;99.90
34766;DHT22;20984;43.508;1.504;2022-12-18T01:39:12;3.70;99.90
34766;DHT22;20984;43.508;1.504;2022-12-18T01:41:38;3.60;99.90
34766;DHT22;20984;43.508;1.504;2022-12-18T01:50:40;3.50;99.90
34766;DHT22;20984;43.508;1.504;2022-12-18T01:53:11;3.40;99.90
34766;DHT22;20984;43.508;1.504;2022-12-18T01:55:51;3.30;99.90
34766;DHT22;20984;43.508;1.504;2022-12-18T01:58:19;3.30;99.90
34766;DHT22;20984;43.508;1.504;2022-12-18T02:00:45;3.30;99.90
34766;DHT22;20984;43.508;1.504;2022-12-18T02:03:11;3.30;99.90
34766;DHT22;20984;43.508;1.504;2022-12-18T02:05:44;3.40;99.90
34766;DHT22;20984;43.508;1.504;2022-12-18T02:08:33;3.30;99.90
34766;DHT22;20984;43.508;1.504;2022-12-18T02:11:11;3.20;99.90
34766;DHT22;20984;43.508;1.504;2022-12-18T02:14:08;3.30;99.90
34766;DHT22;20984;43.508;1.504;2022-12-18T02:16:47;3.10;99.90
34766;DHT22;20984;43.508;1.504;2022-12-18T02:22:24;3.10;99.90
34766;DHT22;20984;43.508;1.504;2022-12-18T02:27:34;3.20;99.90
34766;DHT22;20984;43.508;1.504;2022-12-18T02:30:02;3.20;99.90
34766;DHT22;20984;43.508;1.504;2022-12-18T02:32:33;3.20;99.90
34766;DHT22;20984;43.508;1.504;2022-12-18T02:35:02;3.10;99.90
34766;DHT22;20984;43.508;1.504;2022-12-18T02:37:30;3.10;99.90
34766;DHT22;20984;43.508;1.504;2022-12-18T02:39:59;3.00;99.90
34766;DHT22;20984;43.508;1.504;2022-12-18T02:42:26;3.00;99.90
34766;DHT22;20984;43.508;1.504;2022-12-18T02:44:53;2.90;99.90
34766;DHT22;20984;43.508;1.504;2022-12-18T02:47:22;2.80;99.90
34766;DHT22;20984;43.508;1.504;2022-12-18T02:57:58;2.70;99.90
34766;DHT22;20984;43.508;1.504;2022-12-18T03:00:43;2.70;99.90
34766;DHT22;20984;43.508;1.504;2022-12-18T03:05:50;2.60;99.90
34766;DHT22;20984;43.508;1.504;2022-12-18T03:08:24;2.60;99.90
34766;DHT22;20984;43.508;1.504;2022-12-18T03:11:03;2.60;99.90
34766;DHT22;20984;43.508;1.504;2022-12-18T03:13:59;2.60;99.90
34766;DHT22;20984;43.508;1.504;2022-12-18T03:16:27;2.60;99.90
34766;DHT22;20984;43.508;1.504;2022-12-18T03:19:11;2.50;99.90
34766;DHT22;20984;43.508;1.504;2022-12-18T03:21:47;2.50;99.90
34766;DHT22;20984;43.508;1.504;2022-12-18T03:24:16;2.50;99.90
34766;DHT22;20984;43.508;1.504;2022-12-18T03:26:46;2.50;99.90
34766;DHT22;20984;43.508;1.504;2022-12-18T03:29:41;2.40;99.90
34766;DHT22;20984;43.508;1.504;2022-12-18T03:32:18;2.40;99.90
34766;DHT22;20984;43.508;1.504;2022-12-18T03:34:49;2.30;99.90
34766;DHT22;20984;43.508;1.504;2022-12-18T03:37:16;2.20;99.90
34766;DHT22;20984;43.508;1.504;2022-12-18T03:39:42;2.10;99.90
34766;DHT22;20984;43.508;1.504;2022-12-18T03:45:06;2.00;99.90
34766;DHT22;20984;43.508;1.504;2022-12-18T03:47:58;1.80;99.90
34766;DHT22;20984;43.508;1.504;2022-12-18T03:50:36;1.90;99.90
34766;DHT22;20984;43.508;1.504;2022-12-18T03:53:12;1.90;99.90
34766;DHT22;20984;43.508;1.504;2022-12-18T03:55:40;1.80;99.90
34766;DHT22;20984;43.508;1.504;2022-12-18T03:58:07;1.80;99.90
34766;DHT22;20984;43.508;1.504;2022-12-18T04:00:35;1.90;99.90
34766;DHT22;20984;43.508;1.504;2022-12-18T04:03:01;1.80;99.90
34766;DHT22;20984;43.508;1.504;2022-12-18T04:05:28;1.80;99.90
34766;DHT22;20984;43.508;1.504;2022-12-18T04:07:56;1.80;99.90
34766;DHT22;20984;43.508;1.504;2022-12-18T04:10:22;1.80;99.90
34766;DHT22;20984;43.508;1.504;2022-12-18T04:12:48;1.80;99.90
34766;DHT22;20984;43.508;1.504;2022-12-18T04:15:14;1.80;99.90
34766;DHT22;20984;43.508;1.504;2022-12-18T04:17:48;1.80;99.90
34766;DHT22;20984;43.508;1.504;2022-12-18T04:20:15;1.70;99.90
34766;DHT22;20984;43.508;1.504;2022-12-18T04:22:41;1.70;99.90
34766;DHT22;20984;43.508;1.504;2022-12-18T04:25:07;1.80;99.90
34766;DHT22;20984;43.508;1.504;2022-12-18T04:27:33;1.70;99.90
34766;DHT22;20984;43.508;1.504;2022-12-18T04:29:59;1.70;99.90
34766;DHT22;20984;43.508;1.504;2022-12-18T04:32:25;1.70;99.90
34766;DHT22;20984;43.508;1.504;2022-12-18T04:34:51;1.80;99.90
34766;DHT22;20984;43.508;1.504;2022-12-18T04:37:17;1.80;99.90
34766;DHT22;20984;43.508;1.504;2022-12-18T04:39:43;1.80;99.90
34766;DHT22;20984;43.508;1.504;2022-12-18T04:42:09;1.80;99.90
34766;DHT22;20984;43.508;1.504;2022-12-18T04:44:34;1.80;99.90
34766;DHT22;20984;43.508;1.504;2022-12-18T04:47:01;1.80;99.90
34766;DHT22;20984;43.508;1.504;2022-12-18T04:49:27;2.00;99.90
34766;DHT22;20984;43.508;1.504;2022-12-18T04:51:53;2.10;99.90
34766;DHT22;20984;43.508;1.504;2022-12-18T04:54:18;2.30;99.90
34766;DHT22;20984;43.508;1.504;2022-12-18T04:56:44;2.40;99.90
34766;DHT22;20984;43.508;1.504;2022-12-18T04:59:10;2.50;99.90
34766;DHT22;20984;43.508;1.504;2022-12-18T05:01:36;2.70;99.90
34766;DHT22;20984;43.508;1.504;2022-12-18T05:04:02;2.80;99.90
34766;DHT22;20984;43.508;1.504;2022-12-18T05:06:28;2.90;99.90
34766;DHT22;20984;43.508;1.504;2022-12-18T05:08:54;3.10;99.90
34766;DHT22;20984;43.508;1.504;2022-12-18T05:11:20;3.20;99.90
34766;DHT22;20984;43.508;1.504;2022-12-18T05:13:45;3.30;99.90
34766;DHT22;20984;43.508;1.504;2022-12-18T05:16:12;3.30;99.90
34766;DHT22;20984;43.508;1.504;2022-12-18T05:18:38;3.30;99.90
34766;DHT22;20984;43.508;1.504;2022-12-18T05:21:04;3.40;99.90
34766;DHT22;20984;43.508;1.504;2022-12-18T05:23:30;3.30;99.90
34766;DHT22;20984;43.508;1.504;2022-12-18T05:26:02;3.30;99.90
34766;DHT22;20984;43.508;1.504;2022-12-18T05:28:29;3.40;99.90
34766;DHT22;20984;43.508;1.504;2022-12-18T05:30:58;3.40;99.90
34766;DHT22;20984;43.508;1.504;2022-12-18T05:33:26;3.40;99.90
34766;DHT22;20984;43.508;1.504;2022-12-18T05:36:03;3.50;99.90
34766;DHT22;20984;43.508;1.504;2022-12-18T05:38:32;3.60;99.90
34766;DHT22;20984;43.508;1.504;2022-12-18T05:40:58;3.60;99.90
34766;DHT22;20984;43.508;1.504;2022-12-18T05:43:25;3.50;99.90
34766;DHT22;20984;43.508;1.504;2022-12-18T05:45:51;3.50;99.90
34766;DHT22;20984;43.508;1.504;2022-12-18T05:48:18;3.50;99.90
34766;DHT22;20984;43.508;1.504;2022-12-18T05:50:46;3.60;99.90
34766;DHT22;20984;43.508;1.504;2022-12-18T05:53:17;3.60;99.90
34766;DHT22;20984;43.508;1.504;2022-12-18T05:55:43;3.60;99.90
34766;DHT22;20984;43.508;1.504;2022-12-18T05:58:11;3.60;99.90
34766;DHT22;20984;43.508;1.504;2022-12-18T06:00:40;3.60;99.90
34766;DHT22;20984;43.508;1.504;2022-12-18T06:03:11;3.60;99.90
34766;DHT22;20984;43.508;1.504;2022-12-18T06:05:40;3.60;99.90
34766;DHT22;20984;43.508;1.504;2022-12-18T06:08:06;3.70;99.90
34766;DHT22;20984;43.508;1.504;2022-12-18T06:10:32;3.80;99.90
34766;DHT22;20984;43.508;1.504;2022-12-18T06:12:58;3.90;99.90
34766;DHT22;20984;43.508;1.504;2022-12-18T06:15:23;3.80;99.90
34766;DHT22;20984;43.508;1.504;2022-12-18T06:17:50;3.90;99.90
34766;DHT22;20984;43.508;1.504;2022-12-18T06:20:16;3.90;99.90
34766;DHT22;20984;43.508;1.504;2022-12-18T06:22:42;4.00;99.90
34766;DHT22;20984;43.508;1.504;2022-12-18T06:25:08;4.00;99.90
34766;DHT22;20984;43.508;1.504;2022-12-18T06:27:34;4.00;99.90
34766;DHT22;20984;43.508;1.504;2022-12-18T06:30:00;4.00;99.90
34766;DHT22;20984;43.508;1.504;2022-12-18T06:32:27;4.00;99.90
34766;DHT22;20984;43.508;1.504;2022-12-18T06:34:52;4.00;99.90
34766;DHT22;20984;43.508;1.504;2022-12-18T06:37:19;4.00;99.90
34766;DHT22;20984;43.508;1.504;2022-12-18T06:39:45;3.90;99.90
34766;DHT22;20984;43.508;1.504;2022-12-18T06:42:11;3.90;99.90
34766;DHT22;20984;43.508;1.504;2022-12-18T06:44:36;3.90;99.90
34766;DHT22;20984;43.508;1.504;2022-12-18T06:47:02;3.90;99.90
34766;DHT22;20984;43.508;1.504;2022-12-18T06:49:28;3.90;99.90
34766;DHT22;20984;43.508;1.504;2022-12-18T06:51:54;3.90;99.90
34766;DHT22;20984;43.508;1.504;2022-12-18T06:54:20;4.00;99.90
34766;DHT22;20984;43.508;1.504;2022-12-18T06:56:46;3.90;99.90
34766;DHT22;20984;43.508;1.504;2022-12-18T06:59:13;4.00;99.90
34766;DHT22;20984;43.508;1.504;2022-12-18T07:01:39;4.00;99.90
34766;DHT22;20984;43.508;1.504;2022-12-18T07:04:04;4.00;99.90
34766;DHT22;20984;43.508;1.504;2022-12-18T07:06:30;4.00;99.90
34766;DHT22;20984;43.508;1.504;2022-12-18T07:08:56;4.10;99.90
34766;DHT22;20984;43.508;1.504;2022-12-18T07:11:22;4.10;99.90
34766;DHT22;20984;43.508;1.504;2022-12-18T07:13:48;4.10;99.90
34766;DHT22;20984;43.508;1.504;2022-12-18T07:16:17;4.20;99.90
34766;DHT22;20984;43.508;1.504;2022-12-18T07:18:44;4.30;99.90
34766;DHT22;20984;43.508;1.504;2022-12-18T07:21:13;4.30;99.90
34766;DHT22;20984;43.508;1.504;2022-12-18T07:23:39;4.40;99.90
34766;DHT22;20984;43.508;1.504;2022-12-18T07:26:10;4.50;99.90
34766;DHT22;20984;43.508;1.504;2022-12-18T07:28:39;4.60;99.90
34766;DHT22;20984;43.508;1.504;2022-12-18T07:31:06;4.60;99.90
34766;DHT22;20984;43.508;1.504;2022-12-18T07:33:33;4.60;99.90
34766;DHT22;20984;43.508;1.504;2022-12-18T07:36:00;4.80;99.90
34766;DHT22;20984;43.508;1.504;2022-12-18T07:38:27;4.70;99.90
34766;DHT22;20984;43.508;1.504;2022-12-18T07:40:52;4.70;99.90
34766;DHT22;20984;43.508;1.504;2022-12-18T07:43:18;4.70;99.90
34766;DHT22;20984;43.508;1.504;2022-12-18T07:45:44;4.70;99.90
34766;DHT22;20984;43.508;1.504;2022-12-18T07:48:10;4.80;99.90
34766;DHT22;20984;43.508;1.504;2022-12-18T07:50:36;4.90;99.90
34766;DHT22;20984;43.508;1.504;2022-12-18T07:53:03;4.80;99.90
34766;DHT22;20984;43.508;1.504;2022-12-18T07:55:31;4.90;99.90
34766;DHT22;20984;43.508;1.504;2022-12-18T07:58:00;5.00;99.90
34766;DHT22;20984;43.508;1.504;2022-12-18T08:00:26;5.10;99.90
34766;DHT22;20984;43.508;1.504;2022-12-18T08:02:52;5.10;99.90
34766;DHT22;20984;43.508;1.504;2022-12-18T08:05:17;5.10;99.90
34766;DHT22;20984;43.508;1.504;2022-12-18T08:07:43;5.20;99.90
34766;DHT22;20984;43.508;1.504;2022-12-18T08:10:09;5.30;99.90
34766;DHT22;20984;43.508;1.504;2022-12-18T08:12:35;5.30;99.90
34766;DHT22;20984;43.508;1.504;2022-12-18T08:15:01;5.30;99.90
34766;DHT22;20984;43.508;1.504;2022-12-18T08:17:27;5.40;99.90
34766;DHT22;20984;43.508;1.504;2022-12-18T08:19:52;5.40;99.90
34766;DHT22;20984;43.508;1.504;2022-12-18T08:22:18;5.50;99.90
34766;DHT22;20984;43.508;1.504;2022-12-18T08:24:45;5.60;99.90
34766;DHT22;20984;43.508;1.504;2022-12-18T08:27:10;5.60;99.90
34766;DHT22;20984;43.508;1.504;2022-12-18T08:29:36;5.70;99.90
34766;DHT22;20984;43.508;1.504;2022-12-18T08:32:02;5.70;99.90
34766;DHT22;20984;43.508;1.504;2022-12-18T08:34:28;5.70;99.90
34766;DHT22;20984;43.508;1.504;2022-12-18T08:36:54;5.80;99.90
34766;DHT22;20984;43.508;1.504;2022-12-18T08:39:20;5.80;99.90
34766;DHT22;20984;43.508;1.504;2022-12-18T08:41:45;5.90;99.90
34766;DHT22;20984;43.508;1.504;2022-12-18T08:44:31;5.90;99.90
34766;DHT22;20984;43.508;1.504;2022-12-18T08:47:04;6.00;99.90
34766;DHT22;20984;43.508;1.504;2022-12-18T08:49:31;6.00;99.90
34766;DHT22;20984;43.508;1.504;2022-12-18T08:51:57;6.10;99.90
34766;DHT22;20984;43.508;1.504;2022-12-18T08:54:23;6.20;99.90
34766;DHT22;20984;43.508;1.504;2022-12-18T08:56:49;6.30;99.90
34766;DHT22;20984;43.508;1.504;2022-12-18T08:59:16;6.40;99.90
34766;DHT22;20984;43.508;1.504;2022-12-18T09:01:42;6.50;99.90
34766;DHT22;20984;43.508;1.504;2022-12-18T09:04:09;6.60;99.90
34766;DHT22;20984;43.508;1.504;2022-12-18T09:06:35;6.60;99.90
34766;DHT22;20984;43.508;1.504;2022-12-18T09:09:01;6.70;99.90
34766;DHT22;20984;43.508;1.504;2022-12-18T09:11:28;6.80;99.90
34766;DHT22;20984;43.508;1.504;2022-12-18T09:13:54;6.90;99.90
34766;DHT22;20984;43.508;1.504;2022-12-18T09:16:21;7.00;99.90
34766;DHT22;20984;43.508;1.504;2022-12-18T09:18:48;7.10;99.90
34766;DHT22;20984;43.508;1.504;2022-12-18T09:21:19;7.20;99.90
34766;DHT22;20984;43.508;1.504;2022-12-18T09:23:55;7.20;99.90
34766;DHT22;20984;43.508;1.504;2022-12-18T09:26:23;7.30;99.90
34766;DHT22;20984;43.508;1.504;2022-12-18T09:28:49;7.40;99.90
34766;DHT22;20984;43.508;1.504;2022-12-18T09:31:15;7.50;99.90
34766;DHT22;20984;43.508;1.504;2022-12-18T09:33:42;7.60;99.90
34766;DHT22;20984;43.508;1.504;2022-12-18T09:36:10;7.70;99.90
34766;DHT22;20984;43.508;1.504;2022-12-18T09:38:37;7.70;99.90
34766;DHT22;20984;43.508;1.504;2022-12-18T09:43:53;7.90;99.90
34766;DHT22;20984;43.508;1.504;2022-12-18T09:46:31;8.00;99.90
34766;DHT22;20984;43.508;1.504;2022-12-18T09:49:02;8.10;99.90
34766;DHT22;20984;43.508;1.504;2022-12-18T09:51:37;8.10;99.90
34766;DHT22;20984;43.508;1.504;2022-12-18T09:54:14;8.20;99.90
34766;DHT22;20984;43.508;1.504;2022-12-18T09:56:43;8.30;99.90
34766;DHT22;20984;43.508;1.504;2022-12-18T09:59:25;8.30;99.90
34766;DHT22;20984;43.508;1.504;2022-12-18T10:01:52;8.30;99.90
34766;DHT22;20984;43.508;1.504;2022-12-18T10:04:18;8.40;99.90
34766;DHT22;20984;43.508;1.504;2022-12-18T10:06:54;8.40;99.90
34766;DHT22;20984;43.508;1.504;2022-12-18T10:09:33;8.40;99.90
34766;DHT22;20984;43.508;1.504;2022-12-18T10:12:12;8.40;99.90
34766;DHT22;20984;43.508;1.504;2022-12-18T10:15:00;8.40;99.90
34766;DHT22;20984;43.508;1.504;2022-12-18T10:17:51;8.40;99.90
34766;DHT22;20984;43.508;1.504;2022-12-18T10:20:34;8.50;99.90
34766;DHT22;20984;43.508;1.504;2022-12-18T10:28:12;8.50;99.90
34766;DHT22;20984;43.508;1.504;2022-12-18T10:30:39;8.50;99.90
34766;DHT22;20984;43.508;1.504;2022-12-18T10:33:08;8.60;99.90
34766;DHT22;20984;43.508;1.504;2022-12-18T10:35:36;8.60;99.90
34766;DHT22;20984;43.508;1.504;2022-12-18T10:40:33;8.70;99.90
34766;DHT22;20984;43.508;1.504;2022-12-18T10:43:13;8.70;99.90
34766;DHT22;20984;43.508;1.504;2022-12-18T10:45:40;8.70;99.90
34766;DHT22;20984;43.508;1.504;2022-12-18T10:48:20;8.70;99.90
34766;DHT22;20984;43.508;1.504;2022-12-18T10:50:50;8.70;99.90
34766;DHT22;20984;43.508;1.504;2022-12-18T10:53:28;8.70;99.90
34766;DHT22;20984;43.508;1.504;2022-12-18T10:55:56;8.70;99.90
34766;DHT22;20984;43.508;1.504;2022-12-18T10:58:30;8.70;99.90
34766;DHT22;20984;43.508;1.504;2022-12-18T11:01:07;8.70;99.90
34766;DHT22;20984;43.508;1.504;2022-12-18T11:06:04;8.80;99.90
34766;DHT22;20984;43.508;1.504;2022-12-18T11:08:30;8.80;99.90
34766;DHT22;20984;43.508;1.504;2022-12-18T11:10:56;8.90;99.90
34766;DHT22;20984;43.508;1.504;2022-12-18T11:13:27;8.90;99.90
34766;DHT22;20984;43.508;1.504;2022-12-18T11:15:53;9.00;99.90
34766;DHT22;20984;43.508;1.504;2022-12-18T11:18:25;9.00;99.90
34766;DHT22;20984;43.508;1.504;2022-12-18T11:20:57;9.00;99.90
34766;DHT22;20984;43.508;1.504;2022-12-18T11:23:24;9.00;99.90
34766;DHT22;20984;43.508;1.504;2022-12-18T11:25:59;9.10;99.90
34766;DHT22;20984;43.508;1.504;2022-12-18T11:28:44;9.00;99.90
34766;DHT22;20984;43.508;1.504;2022-12-18T11:33:44;9.00;99.90
34766;DHT22;20984;43.508;1.504;2022-12-18T11:36:12;9.00;99.90
34766;DHT22;20984;43.508;1.504;2022-12-18T11:38:40;9.00;99.90
34766;DHT22;20984;43.508;1.504;2022-12-18T11:43:56;9.10;99.90
34766;DHT22;20984;43.508;1.504;2022-12-18T11:47:00;9.10;99.90
34766;DHT22;20984;43.508;1.504;2022-12-18T11:49:34;9.10;99.90
34766;DHT22;20984;43.508;1.504;2022-12-18T11:52:15;9.10;99.90
34766;DHT22;20984;43.508;1.504;2022-12-18T11:54:41;9.20;99.90
34766;DHT22;20984;43.508;1.504;2022-12-18T11:57:51;9.30;99.90
34766;DHT22;20984;43.508;1.504;2022-12-18T12:00:21;9.20;99.90
34766;DHT22;20984;43.508;1.504;2022-12-18T12:03:50;9.30;99.90
34766;DHT22;20984;43.508;1.504;2022-12-18T12:06:26;9.30;99.90
34766;DHT22;20984;43.508;1.504;2022-12-18T12:09:12;9.30;99.90
34766;DHT22;20984;43.508;1.504;2022-12-18T12:16:58;9.40;99.90
34766;DHT22;20984;43.508;1.504;2022-12-18T12:19:59;9.40;99.90
34766;DHT22;20984;43.508;1.504;2022-12-18T12:22:34;9.30;99.90
34766;DHT22;20984;43.508;1.504;2022-12-18T12:31:17;9.40;99.90
34766;DHT22;20984;43.508;1.504;2022-12-18T12:34:05;9.40;99.90
34766;DHT22;20984;43.508;1.504;2022-12-18T12:39:26;9.30;99.90
34766;DHT22;20984;43.508;1.504;2022-12-18T12:41:54;9.40;99.90
34766;DHT22;20984;43.508;1.504;2022-12-18T12:44:46;9.40;99.90
34766;DHT22;20984;43.508;1.504;2022-12-18T12:49:51;9.40;99.90
34766;DHT22;20984;43.508;1.504;2022-12-18T12:52:39;9.30;99.90
34766;DHT22;20984;43.508;1.504;2022-12-18T12:55:20;9.30;99.90
34766;DHT22;20984;43.508;1.504;2022-12-18T13:00:26;9.30;99.90
34766;DHT22;20984;43.508;1.504;2022-12-18T13:08:52;9.30;99.90
34766;DHT22;20984;43.508;1.504;2022-12-18T13:11:48;9.40;99.90
34766;DHT22;20984;43.508;1.504;2022-12-18T13:14:39;9.40;99.90
34766;DHT22;20984;43.508;1.504;2022-12-18T13:22:39;9.50;99.90
34766;DHT22;20984;43.508;1.504;2022-12-18T13:25:28;9.50;99.90
34766;DHT22;20984;43.508;1.504;2022-12-18T13:28:00;9.40;99.90
34766;DHT22;20984;43.508;1.504;2022-12-18T13:38:37;9.40;99.90
34766;DHT22;20984;43.508;1.504;2022-12-18T13:43:48;9.50;99.90
34766;DHT22;20984;43.508;1.504;2022-12-18T13:46:47;9.50;99.90
34766;DHT22;20984;43.508;1.504;2022-12-18T13:51:43;9.60;99.90
34766;DHT22;20984;43.508;1.504;2022-12-18T13:56:54;9.60;99.90
34766;DHT22;20984;43.508;1.504;2022-12-18T13:59:25;9.60;99.90
34766;DHT22;20984;43.508;1.504;2022-12-18T14:04:26;9.60;99.90
34766;DHT22;20984;43.508;1.504;2022-12-18T14:07:01;9.60;99.90
34766;DHT22;20984;43.508;1.504;2022-12-18T14:09:36;9.60;99.90
34766;DHT22;20984;43.508;1.504;2022-12-18T14:12:03;9.60;99.90
34766;DHT22;20984;43.508;1.504;2022-12-18T14:14:49;9.60;99.90
34766;DHT22;20984;43.508;1.504;2022-12-18T14:17:17;9.60;99.90
34766;DHT22;20984;43.508;1.504;2022-12-18T14:19:48;9.60;99.90
34766;DHT22;20984;43.508;1.504;2022-12-18T14:22:24;9.50;99.90
34766;DHT22;20984;43.508;1.504;2022-12-18T14:27:43;9.50;99.90
34766;DHT22;20984;43.508;1.504;2022-12-18T14:30:31;9.50;99.90
34766;DHT22;20984;43.508;1.504;2022-12-18T14:33:05;9.50;99.90
34766;DHT22;20984;43.508;1.504;2022-12-18T14:38:38;9.50;99.90
34766;DHT22;20984;43.508;1.504;2022-12-18T14:41:14;9.60;99.90
34766;DHT22;20984;43.508;1.504;2022-12-18T14:43:43;9.60;99.90
34766;DHT22;20984;43.508;1.504;2022-12-18T14:46:35;9.60;99.90
34766;DHT22;20984;43.508;1.504;2022-12-18T14:49:39;9.60;99.90
34766;DHT22;20984;43.508;1.504;2022-12-18T14:52:27;9.60;99.90
34766;DHT22;20984;43.508;1.504;2022-12-18T14:54:54;9.60;99.90
34766;DHT22;20984;43.508;1.504;2022-12-18T14:57:25;9.50;99.90
34766;DHT22;20984;43.508;1.504;2022-12-18T15:00:07;9.50;99.90
34766;DHT22;20984;43.508;1.504;2022-12-18T15:02:35;9.50;99.90
34766;DHT22;20984;43.508;1.504;2022-12-18T15:05:16;9.50;99.90
34766;DHT22;20984;43.508;1.504;2022-12-18T15:07:44;9.50;99.90
34766;DHT22;20984;43.508;1.504;2022-12-18T15:10:19;9.50;99.90
34766;DHT22;20984;43.508;1.504;2022-12-18T15:13:05;9.50;99.90
34766;DHT22;20984;43.508;1.504;2022-12-18T15:26:17;9.50;99.90
34766;DHT22;20984;43.508;1.504;2022-12-18T15:28:55;9.40;99.90
34766;DHT22;20984;43.508;1.504;2022-12-18T15:31:28;9.40;99.90
34766;DHT22;20984;43.508;1.504;2022-12-18T15:36:23;9.40;99.90
34766;DHT22;20984;43.508;1.504;2022-12-18T15:38:50;9.40;99.90
34766;DHT22;20984;43.508;1.504;2022-12-18T15:41:18;9.40;99.90
34766;DHT22;20984;43.508;1.504;2022-12-18T15:43:46;9.40;99.90
34766;DHT22;20984;43.508;1.504;2022-12-18T15:46:15;9.50;99.90
34766;DHT22;20984;43.508;1.504;2022-12-18T15:48:45;9.50;99.90
34766;DHT22;20984;43.508;1.504;2022-12-18T15:51:18;9.50;99.90
34766;DHT22;20984;43.508;1.504;2022-12-18T15:53:46;9.40;99.90
34766;DHT22;20984;43.508;1.504;2022-12-18T15:56:14;9.40;99.90
34766;DHT22;20984;43.508;1.504;2022-12-18T15:58:59;9.30;99.90
34766;DHT22;20984;43.508;1.504;2022-12-18T16:01:27;9.30;99.90
34766;DHT22;20984;43.508;1.504;2022-12-18T16:03:54;9.30;99.90
34766;DHT22;20984;43.508;1.504;2022-12-18T16:06:21;9.20;99.90
34766;DHT22;20984;43.508;1.504;2022-12-18T16:08:47;9.20;99.90
34766;DHT22;20984;43.508;1.504;2022-12-18T16:11:23;9.20;99.90
34766;DHT22;20984;43.508;1.504;2022-12-18T16:16:53;9.20;99.90
34766;DHT22;20984;43.508;1.504;2022-12-18T16:19:19;9.20;99.90
34766;DHT22;20984;43.508;1.504;2022-12-18T16:21:47;9.30;99.90
34766;DHT22;20984;43.508;1.504;2022-12-18T16:24:24;9.20;99.90
34766;DHT22;20984;43.508;1.504;2022-12-18T16:26:51;9.20;99.90
34766;DHT22;20984;43.508;1.504;2022-12-18T16:29:19;9.20;99.90
34766;DHT22;20984;43.508;1.504;2022-12-18T16:31:45;9.20;99.90
34766;DHT22;20984;43.508;1.504;2022-12-18T16:36:51;9.20;99.90
34766;DHT22;20984;43.508;1.504;2022-12-18T16:39:17;9.20;99.90
34766;DHT22;20984;43.508;1.504;2022-12-18T16:41:43;9.20;99.90
34766;DHT22;20984;43.508;1.504;2022-12-18T16:44:09;9.20;99.90
34766;DHT22;20984;43.508;1.504;2022-12-18T16:46:36;9.10;99.90
34766;DHT22;20984;43.508;1.504;2022-12-18T16:49:02;9.10;99.90
34766;DHT22;20984;43.508;1.504;2022-12-18T16:51:29;9.10;99.90
34766;DHT22;20984;43.508;1.504;2022-12-18T16:53:55;9.10;99.90
34766;DHT22;20984;43.508;1.504;2022-12-18T16:56:21;9.20;99.90
34766;DHT22;20984;43.508;1.504;2022-12-18T16:58:55;9.20;99.90
34766;DHT22;20984;43.508;1.504;2022-12-18T17:01:22;9.20;99.90
34766;DHT22;20984;43.508;1.504;2022-12-18T17:03:57;9.20;99.90
34766;DHT22;20984;43.508;1.504;2022-12-18T17:06:27;9.20;99.90
34766;DHT22;20984;43.508;1.504;2022-12-18T17:08:57;9.20;99.90
34766;DHT22;20984;43.508;1.504;2022-12-18T17:11:24;9.30;99.90
34766;DHT22;20984;43.508;1.504;2022-12-18T17:13:50;9.40;99.90
34766;DHT22;20984;43.508;1.504;2022-12-18T17:16:17;9.40;99.90
34766;DHT22;20984;43.508;1.504;2022-12-18T17:18:43;9.40;99.90
34766;DHT22;20984;43.508;1.504;2022-12-18T17:21:09;9.50;99.90
34766;DHT22;20984;43.508;1.504;2022-12-18T17:23:36;9.50;99.90
34766;DHT22;20984;43.508;1.504;2022-12-18T17:26:03;9.60;99.90
34766;DHT22;20984;43.508;1.504;2022-12-18T17:28:32;9.60;99.90
34766;DHT22;20984;43.508;1.504;2022-12-18T17:30:58;9.70;99.90
34766;DHT22;20984;43.508;1.504;2022-12-18T17:33:24;9.70;99.90
34766;DHT22;20984;43.508;1.504;2022-12-18T17:35:50;9.80;99.90
34766;DHT22;20984;43.508;1.504;2022-12-18T17:38:16;9.90;99.90
34766;DHT22;20984;43.508;1.504;2022-12-18T17:40:42;9.90;99.90
34766;DHT22;20984;43.508;1.504;2022-12-18T17:43:09;10.00;99.90
34766;DHT22;20984;43.508;1.504;2022-12-18T17:45:36;10.00;99.90
34766;DHT22;20984;43.508;1.504;2022-12-18T17:48:03;10.00;99.90
34766;DHT22;20984;43.508;1.504;2022-12-18T17:50:31;10.10;99.90
34766;DHT22;20984;43.508;1.504;2022-12-18T17:52:57;10.10;99.90
34766;DHT22;20984;43.508;1.504;2022-12-18T17:55:23;10.10;99.90
34766;DHT22;20984;43.508;1.504;2022-12-18T17:57:49;10.00;99.90
34766;DHT22;20984;43.508;1.504;2022-12-18T18:00:15;9.90;99.90
34766;DHT22;20984;43.508;1.504;2022-12-18T18:02:41;9.90;99.90